sensor_id;sensor_type;location;lat;lon;timestamp;P1;durP1;ratioP1;P2;durP2;ratioP2
74241;SDS011;62599;49.146;10.426;2022-10-14T00:02:12;26.87;;;10.40;;
74241;SDS011;62599;49.146;10.426;2022-10-14T00:04:37;19.63;;;9.53;;
74241;SDS011;62599;49.146;10.426;2022-10-14T00:07:02;20.13;;;10.37;;
74241;SDS011;62599;49.146;10.426;2022-10-14T00:09:28;21.67;;;9.60;;
74241;SDS011;62599;49.146;10.426;2022-10-14T00:11:53;22.33;;;11.07;;
74241;SDS011;62599;49.146;10.426;2022-10-14T00:14:19;18.27;;;9.83;;
74241;SDS011;62599;49.146;10.426;2022-10-14T00:16:45;19.55;;;9.80;;
74241;SDS011;62599;49.146;10.426;2022-10-14T00:19:11;19.67;;;10.35;;
74241;SDS011;62599;49.146;10.426;2022-10-14T00:21:37;21.15;;;10.35;;
74241;SDS011;62599;49.146;10.426;2022-10-14T00:24:02;22.13;;;10.32;;
74241;SDS011;62599;49.146;10.426;2022-10-14T00:26:29;20.87;;;11.00;;
74241;SDS011;62599;49.146;10.426;2022-10-14T00:28:55;20.13;;;9.55;;
74241;SDS011;62599;49.146;10.426;2022-10-14T00:31:20;20.90;;;10.23;;
74241;SDS011;62599;49.146;10.426;2022-10-14T00:33:46;21.90;;;10.07;;
74241;SDS011;62599;49.146;10.426;2022-10-14T00:36:12;18.10;;;9.13;;
74241;SDS011;62599;49.146;10.426;2022-10-14T00:38:38;18.23;;;9.95;;
74241;SDS011;62599;49.146;10.426;2022-10-14T00:41:04;20.15;;;9.88;;
74241;SDS011;62599;49.146;10.426;2022-10-14T00:43:47;15.60;;;9.13;;
74241;SDS011;62599;49.146;10.426;2022-10-14T00:46:14;20.00;;;10.02;;
74241;SDS011;62599;49.146;10.426;2022-10-14T00:48:39;18.87;;;9.33;;
74241;SDS011;62599;49.146;10.426;2022-10-14T00:51:04;16.60;;;9.40;;
74241;SDS011;62599;49.146;10.426;2022-10-14T00:53:30;22.97;;;10.70;;
74241;SDS011;62599;49.146;10.426;2022-10-14T00:55:55;21.92;;;10.45;;
74241;SDS011;62599;49.146;10.426;2022-10-14T00:58:20;19.03;;;9.77;;
74241;SDS011;62599;49.146;10.426;2022-10-14T01:00:46;21.27;;;10.03;;
74241;SDS011;62599;49.146;10.426;2022-10-14T01:03:18;18.67;;;10.17;;
74241;SDS011;62599;49.146;10.426;2022-10-14T01:05:48;20.35;;;10.07;;
74241;SDS011;62599;49.146;10.426;2022-10-14T01:08:21;20.10;;;9.77;;
74241;SDS011;62599;49.146;10.426;2022-10-14T01:11:01;18.80;;;9.10;;
74241;SDS011;62599;49.146;10.426;2022-10-14T01:13:32;19.35;;;9.23;;
74241;SDS011;62599;49.146;10.426;2022-10-14T01:23:34;23.05;;;10.15;;
74241;SDS011;62599;49.146;10.426;2022-10-14T01:28:53;20.80;;;10.50;;
74241;SDS011;62599;49.146;10.426;2022-10-14T01:31:22;24.23;;;9.95;;
74241;SDS011;62599;49.146;10.426;2022-10-14T01:33:50;24.65;;;10.07;;
74241;SDS011;62599;49.146;10.426;2022-10-14T01:36:19;24.70;;;9.93;;
74241;SDS011;62599;49.146;10.426;2022-10-14T01:41:30;22.30;;;10.00;;
74241;SDS011;62599;49.146;10.426;2022-10-14T01:44:01;22.10;;;10.07;;
74241;SDS011;62599;49.146;10.426;2022-10-14T01:46:27;20.25;;;10.13;;
74241;SDS011;62599;49.146;10.426;2022-10-14T01:48:54;18.90;;;8.93;;
74241;SDS011;62599;49.146;10.426;2022-10-14T01:51:22;16.52;;;8.82;;
74241;SDS011;62599;49.146;10.426;2022-10-14T01:53:52;21.50;;;9.52;;
74241;SDS011;62599;49.146;10.426;2022-10-14T01:56:20;20.67;;;10.73;;
74241;SDS011;62599;49.146;10.426;2022-10-14T01:58:45;20.67;;;8.77;;
74241;SDS011;62599;49.146;10.426;2022-10-14T02:01:10;18.35;;;9.38;;
74241;SDS011;62599;49.146;10.426;2022-10-14T02:03:42;20.23;;;10.00;;
74241;SDS011;62599;49.146;10.426;2022-10-14T02:06:31;20.20;;;9.60;;
74241;SDS011;62599;49.146;10.426;2022-10-14T02:11:22;17.40;;;9.83;;
74241;SDS011;62599;49.146;10.426;2022-10-14T02:16:24;36.75;;;10.93;;
74241;SDS011;62599;49.146;10.426;2022-10-14T02:19:34;20.42;;;10.82;;
74241;SDS011;62599;49.146;10.426;2022-10-14T02:21:40;16.48;;;8.35;;
74241;SDS011;62599;49.146;10.426;2022-10-14T02:24:11;20.38;;;9.00;;
74241;SDS011;62599;49.146;10.426;2022-10-14T02:26:38;19.30;;;9.75;;
74241;SDS011;62599;49.146;10.426;2022-10-14T02:29:05;21.33;;;11.20;;
74241;SDS011;62599;49.146;10.426;2022-10-14T02:31:33;19.70;;;9.77;;
74241;SDS011;62599;49.146;10.426;2022-10-14T02:34:02;20.70;;;10.38;;
74241;SDS011;62599;49.146;10.426;2022-10-14T02:36:28;21.20;;;10.68;;
74241;SDS011;62599;49.146;10.426;2022-10-14T02:38:55;19.30;;;9.68;;
74241;SDS011;62599;49.146;10.426;2022-10-14T02:41:22;23.60;;;10.80;;
74241;SDS011;62599;49.146;10.426;2022-10-14T02:43:49;20.75;;;10.30;;
74241;SDS011;62599;49.146;10.426;2022-10-14T02:48:49;21.95;;;9.48;;
74241;SDS011;62599;49.146;10.426;2022-10-14T02:51:14;19.63;;;10.43;;
74241;SDS011;62599;49.146;10.426;2022-10-14T02:53:40;20.52;;;10.55;;
74241;SDS011;62599;49.146;10.426;2022-10-14T02:56:05;19.93;;;11.10;;
74241;SDS011;62599;49.146;10.426;2022-10-14T02:58:31;22.48;;;10.25;;
74241;SDS011;62599;49.146;10.426;2022-10-14T03:00:56;23.63;;;10.98;;
74241;SDS011;62599;49.146;10.426;2022-10-14T03:03:21;25.57;;;12.23;;
74241;SDS011;62599;49.146;10.426;2022-10-14T03:05:47;25.57;;;11.00;;
74241;SDS011;62599;49.146;10.426;2022-10-14T03:08:12;28.07;;;11.33;;
74241;SDS011;62599;49.146;10.426;2022-10-14T03:10:37;26.08;;;11.63;;
74241;SDS011;62599;49.146;10.426;2022-10-14T03:13:03;21.47;;;10.67;;
74241;SDS011;62599;49.146;10.426;2022-10-14T03:15:28;26.50;;;12.07;;
74241;SDS011;62599;49.146;10.426;2022-10-14T03:17:53;24.58;;;11.30;;
74241;SDS011;62599;49.146;10.426;2022-10-14T03:20:18;27.67;;;10.77;;
74241;SDS011;62599;49.146;10.426;2022-10-14T03:22:44;29.70;;;11.23;;
74241;SDS011;62599;49.146;10.426;2022-10-14T03:25:09;26.23;;;12.23;;
74241;SDS011;62599;49.146;10.426;2022-10-14T03:27:35;23.35;;;11.45;;
74241;SDS011;62599;49.146;10.426;2022-10-14T03:30:00;23.80;;;10.40;;
74241;SDS011;62599;49.146;10.426;2022-10-14T03:32:26;23.20;;;10.50;;
74241;SDS011;62599;49.146;10.426;2022-10-14T03:34:51;22.53;;;10.53;;
74241;SDS011;62599;49.146;10.426;2022-10-14T03:37:16;22.63;;;10.50;;
74241;SDS011;62599;49.146;10.426;2022-10-14T03:39:41;23.90;;;10.67;;
74241;SDS011;62599;49.146;10.426;2022-10-14T03:42:06;22.67;;;11.23;;
74241;SDS011;62599;49.146;10.426;2022-10-14T03:44:32;27.33;;;11.50;;
74241;SDS011;62599;49.146;10.426;2022-10-14T03:46:57;24.97;;;11.17;;
74241;SDS011;62599;49.146;10.426;2022-10-14T03:49:22;29.03;;;12.90;;
74241;SDS011;62599;49.146;10.426;2022-10-14T03:51:47;28.67;;;13.17;;
74241;SDS011;62599;49.146;10.426;2022-10-14T03:54:13;32.83;;;13.87;;
74241;SDS011;62599;49.146;10.426;2022-10-14T03:56:38;29.77;;;11.97;;
74241;SDS011;62599;49.146;10.426;2022-10-14T03:59:03;27.63;;;12.50;;
74241;SDS011;62599;49.146;10.426;2022-10-14T04:01:28;34.00;;;12.43;;
74241;SDS011;62599;49.146;10.426;2022-10-14T04:03:54;28.48;;;12.65;;
74241;SDS011;62599;49.146;10.426;2022-10-14T04:06:19;24.13;;;12.10;;
74241;SDS011;62599;49.146;10.426;2022-10-14T04:08:44;32.83;;;13.83;;
74241;SDS011;62599;49.146;10.426;2022-10-14T04:11:09;27.93;;;11.27;;
74241;SDS011;62599;49.146;10.426;2022-10-14T04:13:35;26.37;;;12.27;;
74241;SDS011;62599;49.146;10.426;2022-10-14T04:16:06;33.65;;;13.68;;
74241;SDS011;62599;49.146;10.426;2022-10-14T04:18:32;28.70;;;11.85;;
74241;SDS011;62599;49.146;10.426;2022-10-14T04:21:01;27.77;;;13.32;;
74241;SDS011;62599;49.146;10.426;2022-10-14T04:23:27;29.15;;;13.27;;
74241;SDS011;62599;49.146;10.426;2022-10-14T04:25:52;27.60;;;12.70;;
74241;SDS011;62599;49.146;10.426;2022-10-14T04:28:17;26.23;;;12.20;;
74241;SDS011;62599;49.146;10.426;2022-10-14T04:30:43;28.00;;;13.70;;
74241;SDS011;62599;49.146;10.426;2022-10-14T04:33:08;32.37;;;13.53;;
74241;SDS011;62599;49.146;10.426;2022-10-14T04:35:33;27.40;;;13.53;;
74241;SDS011;62599;49.146;10.426;2022-10-14T04:37:58;30.00;;;12.80;;
74241;SDS011;62599;49.146;10.426;2022-10-14T04:40:24;28.67;;;11.83;;
74241;SDS011;62599;49.146;10.426;2022-10-14T04:42:53;26.92;;;12.38;;
74241;SDS011;62599;49.146;10.426;2022-10-14T04:45:18;29.42;;;12.70;;
74241;SDS011;62599;49.146;10.426;2022-10-14T04:47:43;27.37;;;12.70;;
74241;SDS011;62599;49.146;10.426;2022-10-14T04:50:08;32.30;;;13.50;;
74241;SDS011;62599;49.146;10.426;2022-10-14T04:52:34;26.20;;;11.97;;
74241;SDS011;62599;49.146;10.426;2022-10-14T04:54:59;33.47;;;12.60;;
74241;SDS011;62599;49.146;10.426;2022-10-14T04:57:24;33.80;;;15.27;;
74241;SDS011;62599;49.146;10.426;2022-10-14T04:59:49;33.23;;;14.47;;
74241;SDS011;62599;49.146;10.426;2022-10-14T05:02:15;33.33;;;13.90;;
74241;SDS011;62599;49.146;10.426;2022-10-14T05:04:40;35.37;;;14.43;;
74241;SDS011;62599;49.146;10.426;2022-10-14T05:07:05;31.93;;;15.10;;
74241;SDS011;62599;49.146;10.426;2022-10-14T05:09:30;35.80;;;14.13;;
74241;SDS011;62599;49.146;10.426;2022-10-14T05:11:57;32.13;;;14.10;;
74241;SDS011;62599;49.146;10.426;2022-10-14T05:14:22;31.77;;;12.60;;
74241;SDS011;62599;49.146;10.426;2022-10-14T05:16:47;29.40;;;13.40;;
74241;SDS011;62599;49.146;10.426;2022-10-14T05:19:13;32.57;;;13.23;;
74241;SDS011;62599;49.146;10.426;2022-10-14T05:21:38;28.83;;;13.40;;
74241;SDS011;62599;49.146;10.426;2022-10-14T05:24:03;31.70;;;14.40;;
74241;SDS011;62599;49.146;10.426;2022-10-14T05:26:29;28.23;;;13.02;;
74241;SDS011;62599;49.146;10.426;2022-10-14T05:28:54;27.90;;;12.77;;
74241;SDS011;62599;49.146;10.426;2022-10-14T05:31:19;31.07;;;13.13;;
74241;SDS011;62599;49.146;10.426;2022-10-14T05:33:44;30.20;;;13.20;;
74241;SDS011;62599;49.146;10.426;2022-10-14T05:36:10;30.77;;;13.73;;
74241;SDS011;62599;49.146;10.426;2022-10-14T05:38:35;35.50;;;13.27;;
74241;SDS011;62599;49.146;10.426;2022-10-14T05:41:00;32.60;;;14.77;;
74241;SDS011;62599;49.146;10.426;2022-10-14T05:43:25;37.63;;;14.57;;
74241;SDS011;62599;49.146;10.426;2022-10-14T05:45:51;31.57;;;13.80;;
74241;SDS011;62599;49.146;10.426;2022-10-14T05:48:16;34.13;;;14.57;;
74241;SDS011;62599;49.146;10.426;2022-10-14T05:50:41;30.42;;;16.02;;
74241;SDS011;62599;49.146;10.426;2022-10-14T05:53:07;30.00;;;13.18;;
74241;SDS011;62599;49.146;10.426;2022-10-14T05:55:32;33.93;;;14.87;;
74241;SDS011;62599;49.146;10.426;2022-10-14T05:57:57;30.40;;;14.77;;
74241;SDS011;62599;49.146;10.426;2022-10-14T06:00:23;25.17;;;12.20;;
74241;SDS011;62599;49.146;10.426;2022-10-14T06:02:48;29.55;;;13.02;;
74241;SDS011;62599;49.146;10.426;2022-10-14T06:05:14;31.25;;;13.98;;
74241;SDS011;62599;49.146;10.426;2022-10-14T06:07:39;32.37;;;13.63;;
74241;SDS011;62599;49.146;10.426;2022-10-14T06:10:04;27.43;;;13.17;;
74241;SDS011;62599;49.146;10.426;2022-10-14T06:12:30;27.38;;;13.40;;
74241;SDS011;62599;49.146;10.426;2022-10-14T06:14:56;30.10;;;14.38;;
74241;SDS011;62599;49.146;10.426;2022-10-14T06:17:21;27.30;;;12.77;;
74241;SDS011;62599;49.146;10.426;2022-10-14T06:19:46;29.67;;;13.10;;
74241;SDS011;62599;49.146;10.426;2022-10-14T06:22:12;32.20;;;13.60;;
74241;SDS011;62599;49.146;10.426;2022-10-14T06:24:37;23.77;;;11.97;;
74241;SDS011;62599;49.146;10.426;2022-10-14T06:27:02;28.07;;;12.87;;
74241;SDS011;62599;49.146;10.426;2022-10-14T06:29:28;23.60;;;12.10;;
74241;SDS011;62599;49.146;10.426;2022-10-14T06:32:01;23.10;;;12.10;;
74241;SDS011;62599;49.146;10.426;2022-10-14T06:34:26;24.13;;;11.30;;
74241;SDS011;62599;49.146;10.426;2022-10-14T06:36:51;22.80;;;12.23;;
74241;SDS011;62599;49.146;10.426;2022-10-14T06:39:17;24.50;;;11.10;;
74241;SDS011;62599;49.146;10.426;2022-10-14T06:41:42;31.97;;;13.30;;
74241;SDS011;62599;49.146;10.426;2022-10-14T06:44:07;22.33;;;11.57;;
74241;SDS011;62599;49.146;10.426;2022-10-14T06:46:33;21.70;;;11.73;;
74241;SDS011;62599;49.146;10.426;2022-10-14T06:48:58;26.73;;;12.50;;
74241;SDS011;62599;49.146;10.426;2022-10-14T06:51:23;24.83;;;10.43;;
74241;SDS011;62599;49.146;10.426;2022-10-14T06:53:48;23.63;;;12.60;;
74241;SDS011;62599;49.146;10.426;2022-10-14T06:56:14;25.07;;;12.27;;
74241;SDS011;62599;49.146;10.426;2022-10-14T06:58:39;28.80;;;13.47;;
74241;SDS011;62599;49.146;10.426;2022-10-14T07:01:05;28.60;;;13.13;;
74241;SDS011;62599;49.146;10.426;2022-10-14T07:03:30;29.55;;;13.30;;
74241;SDS011;62599;49.146;10.426;2022-10-14T07:05:55;28.00;;;14.35;;
74241;SDS011;62599;49.146;10.426;2022-10-14T07:08:21;36.97;;;14.50;;
74241;SDS011;62599;49.146;10.426;2022-10-14T07:10:46;28.20;;;12.63;;
74241;SDS011;62599;49.146;10.426;2022-10-14T07:13:12;31.05;;;14.20;;
74241;SDS011;62599;49.146;10.426;2022-10-14T07:15:37;21.27;;;13.10;;
74241;SDS011;62599;49.146;10.426;2022-10-14T07:18:03;21.60;;;11.73;;
74241;SDS011;62599;49.146;10.426;2022-10-14T07:20:28;22.70;;;11.80;;
74241;SDS011;62599;49.146;10.426;2022-10-14T07:22:54;16.53;;;10.43;;
74241;SDS011;62599;49.146;10.426;2022-10-14T07:25:20;23.02;;;11.82;;
74241;SDS011;62599;49.146;10.426;2022-10-14T07:27:45;18.20;;;10.17;;
74241;SDS011;62599;49.146;10.426;2022-10-14T07:30:11;21.03;;;12.03;;
74241;SDS011;62599;49.146;10.426;2022-10-14T07:32:36;23.37;;;11.43;;
74241;SDS011;62599;49.146;10.426;2022-10-14T07:35:01;16.87;;;9.97;;
74241;SDS011;62599;49.146;10.426;2022-10-14T07:37:27;19.97;;;9.30;;
74241;SDS011;62599;49.146;10.426;2022-10-14T07:39:52;17.17;;;9.30;;
74241;SDS011;62599;49.146;10.426;2022-10-14T07:42:17;14.40;;;9.50;;
74241;SDS011;62599;49.146;10.426;2022-10-14T07:44:43;19.13;;;9.50;;
74241;SDS011;62599;49.146;10.426;2022-10-14T07:47:09;16.90;;;9.23;;
74241;SDS011;62599;49.146;10.426;2022-10-14T07:49:35;15.37;;;9.27;;
74241;SDS011;62599;49.146;10.426;2022-10-14T07:52:00;14.57;;;9.67;;
74241;SDS011;62599;49.146;10.426;2022-10-14T07:54:25;16.70;;;8.67;;
74241;SDS011;62599;49.146;10.426;2022-10-14T07:56:53;15.10;;;8.40;;
74241;SDS011;62599;49.146;10.426;2022-10-14T07:59:19;14.10;;;8.95;;
74241;SDS011;62599;49.146;10.426;2022-10-14T08:01:48;14.68;;;8.48;;
74241;SDS011;62599;49.146;10.426;2022-10-14T08:04:14;11.30;;;7.55;;
74241;SDS011;62599;49.146;10.426;2022-10-14T08:06:39;13.45;;;7.47;;
74241;SDS011;62599;49.146;10.426;2022-10-14T08:09:05;13.43;;;7.93;;
74241;SDS011;62599;49.146;10.426;2022-10-14T08:11:30;13.52;;;7.43;;
74241;SDS011;62599;49.146;10.426;2022-10-14T08:13:56;12.73;;;6.93;;
74241;SDS011;62599;49.146;10.426;2022-10-14T08:16:24;12.13;;;7.43;;
74241;SDS011;62599;49.146;10.426;2022-10-14T08:18:50;9.75;;;6.72;;
74241;SDS011;62599;49.146;10.426;2022-10-14T08:21:16;13.95;;;7.10;;
74241;SDS011;62599;49.146;10.426;2022-10-14T08:23:42;11.63;;;6.68;;
74241;SDS011;62599;49.146;10.426;2022-10-14T08:26:17;12.77;;;7.37;;
74241;SDS011;62599;49.146;10.426;2022-10-14T08:28:43;10.02;;;6.90;;
74241;SDS011;62599;49.146;10.426;2022-10-14T08:31:09;13.43;;;7.37;;
74241;SDS011;62599;49.146;10.426;2022-10-14T08:33:34;11.80;;;7.57;;
74241;SDS011;62599;49.146;10.426;2022-10-14T08:35:59;12.50;;;7.27;;
74241;SDS011;62599;49.146;10.426;2022-10-14T08:38:24;11.63;;;7.07;;
74241;SDS011;62599;49.146;10.426;2022-10-14T08:43:59;12.20;;;7.43;;
74241;SDS011;62599;49.146;10.426;2022-10-14T08:46:28;13.70;;;7.63;;
74241;SDS011;62599;49.146;10.426;2022-10-14T08:49:02;12.15;;;7.03;;
74241;SDS011;62599;49.146;10.426;2022-10-14T08:51:30;11.25;;;7.38;;
74241;SDS011;62599;49.146;10.426;2022-10-14T08:53:58;11.07;;;6.53;;
74241;SDS011;62599;49.146;10.426;2022-10-14T08:56:27;12.02;;;7.75;;
74241;SDS011;62599;49.146;10.426;2022-10-14T08:58:52;10.57;;;7.47;;
74241;SDS011;62599;49.146;10.426;2022-10-14T09:01:23;11.15;;;7.53;;
74241;SDS011;62599;49.146;10.426;2022-10-14T09:03:55;11.95;;;7.13;;
74241;SDS011;62599;49.146;10.426;2022-10-14T09:06:23;12.70;;;8.50;;
74241;SDS011;62599;49.146;10.426;2022-10-14T09:08:49;14.30;;;7.38;;
74241;SDS011;62599;49.146;10.426;2022-10-14T09:11:17;9.05;;;6.15;;
74241;SDS011;62599;49.146;10.426;2022-10-14T09:13:44;15.48;;;7.70;;
74241;SDS011;62599;49.146;10.426;2022-10-14T09:16:15;12.98;;;7.68;;
74241;SDS011;62599;49.146;10.426;2022-10-14T09:21:41;10.45;;;7.40;;
74241;SDS011;62599;49.146;10.426;2022-10-14T09:24:19;11.10;;;5.63;;
74241;SDS011;62599;49.146;10.426;2022-10-14T09:26:48;12.13;;;8.98;;
74241;SDS011;62599;49.146;10.426;2022-10-14T09:31:48;10.55;;;6.50;;
74241;SDS011;62599;49.146;10.426;2022-10-14T09:34:15;9.27;;;7.15;;
74241;SDS011;62599;49.146;10.426;2022-10-14T09:36:42;14.30;;;7.68;;
74241;SDS011;62599;49.146;10.426;2022-10-14T09:39:07;10.52;;;6.70;;
74241;SDS011;62599;49.146;10.426;2022-10-14T09:41:35;11.52;;;6.53;;
74241;SDS011;62599;49.146;10.426;2022-10-14T09:46:47;9.63;;;6.15;;
74241;SDS011;62599;49.146;10.426;2022-10-14T09:49:16;8.48;;;5.80;;
74241;SDS011;62599;49.146;10.426;2022-10-14T09:51:42;13.93;;;6.25;;
74241;SDS011;62599;49.146;10.426;2022-10-14T09:54:14;11.60;;;5.97;;
74241;SDS011;62599;49.146;10.426;2022-10-14T09:56:42;8.60;;;6.05;;
74241;SDS011;62599;49.146;10.426;2022-10-14T09:59:19;11.93;;;7.90;;
74241;SDS011;62599;49.146;10.426;2022-10-14T10:01:52;9.90;;;6.82;;
74241;SDS011;62599;49.146;10.426;2022-10-14T10:06:52;8.98;;;5.55;;
74241;SDS011;62599;49.146;10.426;2022-10-14T10:09:18;20.05;;;6.13;;
74241;SDS011;62599;49.146;10.426;2022-10-14T10:11:44;12.40;;;6.60;;
74241;SDS011;62599;49.146;10.426;2022-10-14T10:14:16;9.50;;;5.38;;
74241;SDS011;62599;49.146;10.426;2022-10-14T10:16:44;10.05;;;5.95;;
74241;SDS011;62599;49.146;10.426;2022-10-14T10:20:05;9.52;;;5.10;;
74241;SDS011;62599;49.146;10.426;2022-10-14T10:24:42;11.02;;;6.00;;
74241;SDS011;62599;49.146;10.426;2022-10-14T10:27:19;11.45;;;6.72;;
74241;SDS011;62599;49.146;10.426;2022-10-14T10:29:44;12.55;;;6.40;;
74241;SDS011;62599;49.146;10.426;2022-10-14T10:32:18;10.57;;;5.67;;
74241;SDS011;62599;49.146;10.426;2022-10-14T10:34:52;11.43;;;5.88;;
74241;SDS011;62599;49.146;10.426;2022-10-14T10:39:53;15.25;;;5.90;;
74241;SDS011;62599;49.146;10.426;2022-10-14T10:42:29;9.00;;;6.13;;
74241;SDS011;62599;49.146;10.426;2022-10-14T10:50:17;8.40;;;5.80;;
74241;SDS011;62599;49.146;10.426;2022-10-14T10:55:36;10.13;;;6.00;;
74241;SDS011;62599;49.146;10.426;2022-10-14T11:01:08;8.45;;;4.60;;
74241;SDS011;62599;49.146;10.426;2022-10-14T11:06:35;7.60;;;6.17;;
74241;SDS011;62599;49.146;10.426;2022-10-14T11:09:14;10.52;;;4.15;;
74241;SDS011;62599;49.146;10.426;2022-10-14T11:19:23;8.57;;;4.05;;
74241;SDS011;62599;49.146;10.426;2022-10-14T11:27:16;10.23;;;5.72;;
74241;SDS011;62599;49.146;10.426;2022-10-14T11:30:16;8.93;;;4.75;;
74241;SDS011;62599;49.146;10.426;2022-10-14T11:32:41;11.50;;;5.10;;
74241;SDS011;62599;49.146;10.426;2022-10-14T11:38:06;8.80;;;5.25;;
74241;SDS011;62599;49.146;10.426;2022-10-14T11:40:38;8.65;;;5.38;;
74241;SDS011;62599;49.146;10.426;2022-10-14T11:43:29;11.70;;;5.68;;
74241;SDS011;62599;49.146;10.426;2022-10-14T11:46:13;12.57;;;6.18;;
74241;SDS011;62599;49.146;10.426;2022-10-14T11:48:44;8.70;;;5.25;;
74241;SDS011;62599;49.146;10.426;2022-10-14T11:56:09;8.13;;;5.38;;
74241;SDS011;62599;49.146;10.426;2022-10-14T11:58:36;11.38;;;5.75;;
74241;SDS011;62599;49.146;10.426;2022-10-14T12:01:02;8.93;;;4.90;;
74241;SDS011;62599;49.146;10.426;2022-10-14T12:03:52;11.70;;;4.53;;
74241;SDS011;62599;49.146;10.426;2022-10-14T12:14:05;6.75;;;4.20;;
74241;SDS011;62599;49.146;10.426;2022-10-14T12:16:31;8.95;;;4.63;;
74241;SDS011;62599;49.146;10.426;2022-10-14T12:18:57;10.98;;;4.60;;
74241;SDS011;62599;49.146;10.426;2022-10-14T12:21:34;10.67;;;4.90;;
74241;SDS011;62599;49.146;10.426;2022-10-14T12:24:02;10.38;;;4.60;;
74241;SDS011;62599;49.146;10.426;2022-10-14T12:29:00;8.90;;;5.32;;
74241;SDS011;62599;49.146;10.426;2022-10-14T12:36:46;7.28;;;4.40;;
74241;SDS011;62599;49.146;10.426;2022-10-14T12:44:12;7.07;;;3.78;;
74241;SDS011;62599;49.146;10.426;2022-10-14T12:46:44;9.20;;;5.40;;
74241;SDS011;62599;49.146;10.426;2022-10-14T12:52:03;9.43;;;4.15;;
74241;SDS011;62599;49.146;10.426;2022-10-14T12:54:31;8.55;;;4.20;;
74241;SDS011;62599;49.146;10.426;2022-10-14T12:57:03;8.05;;;4.00;;
74241;SDS011;62599;49.146;10.426;2022-10-14T12:59:34;8.07;;;3.35;;
74241;SDS011;62599;49.146;10.426;2022-10-14T13:02:03;8.95;;;3.50;;
74241;SDS011;62599;49.146;10.426;2022-10-14T13:04:31;9.48;;;4.00;;
74241;SDS011;62599;49.146;10.426;2022-10-14T13:09:45;4.30;;;2.67;;
74241;SDS011;62599;49.146;10.426;2022-10-14T13:17:29;3.95;;;2.45;;
74241;SDS011;62599;49.146;10.426;2022-10-14T13:19:57;8.10;;;2.97;;
74241;SDS011;62599;49.146;10.426;2022-10-14T13:25:08;9.10;;;2.58;;
74241;SDS011;62599;49.146;10.426;2022-10-14T13:27:46;4.53;;;2.60;;
74241;SDS011;62599;49.146;10.426;2022-10-14T13:32:46;5.50;;;3.15;;
74241;SDS011;62599;49.146;10.426;2022-10-14T13:35:23;4.45;;;2.42;;
74241;SDS011;62599;49.146;10.426;2022-10-14T13:38:02;5.43;;;2.33;;
74241;SDS011;62599;49.146;10.426;2022-10-14T13:43:05;7.20;;;3.80;;
74241;SDS011;62599;49.146;10.426;2022-10-14T13:45:33;5.43;;;2.78;;
74241;SDS011;62599;49.146;10.426;2022-10-14T13:48:05;6.43;;;3.50;;
74241;SDS011;62599;49.146;10.426;2022-10-14T13:50:35;3.95;;;2.33;;
74241;SDS011;62599;49.146;10.426;2022-10-14T13:53:04;4.15;;;2.33;;
74241;SDS011;62599;49.146;10.426;2022-10-14T13:55:29;4.78;;;1.90;;
74241;SDS011;62599;49.146;10.426;2022-10-14T13:58:00;6.60;;;2.10;;
74241;SDS011;62599;49.146;10.426;2022-10-14T14:00:36;4.22;;;1.90;;
74241;SDS011;62599;49.146;10.426;2022-10-14T14:03:48;2.85;;;1.67;;
74241;SDS011;62599;49.146;10.426;2022-10-14T14:05:55;3.92;;;2.58;;
74241;SDS011;62599;49.146;10.426;2022-10-14T14:08:25;9.27;;;2.08;;
74241;SDS011;62599;49.146;10.426;2022-10-14T14:11:00;3.47;;;2.00;;
74241;SDS011;62599;49.146;10.426;2022-10-14T14:13:29;3.70;;;3.00;;
74241;SDS011;62599;49.146;10.426;2022-10-14T14:15:56;4.65;;;3.30;;
74241;SDS011;62599;49.146;10.426;2022-10-14T14:18:24;5.30;;;3.75;;
74241;SDS011;62599;49.146;10.426;2022-10-14T14:20:54;5.38;;;3.15;;
74241;SDS011;62599;49.146;10.426;2022-10-14T14:23:22;6.75;;;4.15;;
74241;SDS011;62599;49.146;10.426;2022-10-14T14:25:48;9.05;;;2.95;;
74241;SDS011;62599;49.146;10.426;2022-10-14T14:28:17;6.75;;;4.18;;
74241;SDS011;62599;49.146;10.426;2022-10-14T14:30:50;4.15;;;3.75;;
74241;SDS011;62599;49.146;10.426;2022-10-14T14:33:17;7.13;;;4.30;;
74241;SDS011;62599;49.146;10.426;2022-10-14T14:35:53;4.38;;;3.25;;
74241;SDS011;62599;49.146;10.426;2022-10-14T14:38:32;6.25;;;3.70;;
74241;SDS011;62599;49.146;10.426;2022-10-14T14:41:04;8.00;;;3.65;;
74241;SDS011;62599;49.146;10.426;2022-10-14T14:43:30;5.65;;;3.55;;
74241;SDS011;62599;49.146;10.426;2022-10-14T14:45:57;7.13;;;4.03;;
74241;SDS011;62599;49.146;10.426;2022-10-14T14:48:26;5.25;;;3.65;;
74241;SDS011;62599;49.146;10.426;2022-10-14T14:50:53;7.10;;;3.75;;
74241;SDS011;62599;49.146;10.426;2022-10-14T14:53:21;6.63;;;3.22;;
74241;SDS011;62599;49.146;10.426;2022-10-14T14:56:11;3.67;;;3.03;;
74241;SDS011;62599;49.146;10.426;2022-10-14T14:58:37;8.57;;;3.67;;
74241;SDS011;62599;49.146;10.426;2022-10-14T15:01:29;5.88;;;3.42;;
74241;SDS011;62599;49.146;10.426;2022-10-14T15:06:23;4.35;;;3.00;;
74241;SDS011;62599;49.146;10.426;2022-10-14T15:08:50;3.85;;;3.08;;
74241;SDS011;62599;49.146;10.426;2022-10-14T15:11:17;4.38;;;3.00;;
74241;SDS011;62599;49.146;10.426;2022-10-14T15:13:52;4.85;;;3.03;;
74241;SDS011;62599;49.146;10.426;2022-10-14T15:16:36;4.10;;;3.42;;
74241;SDS011;62599;49.146;10.426;2022-10-14T15:21:38;5.72;;;3.97;;
74241;SDS011;62599;49.146;10.426;2022-10-14T15:24:10;4.43;;;3.70;;
74241;SDS011;62599;49.146;10.426;2022-10-14T15:26:39;3.42;;;2.88;;
74241;SDS011;62599;49.146;10.426;2022-10-14T15:29:19;4.60;;;3.97;;
74241;SDS011;62599;49.146;10.426;2022-10-14T15:32:10;5.30;;;3.20;;
74241;SDS011;62599;49.146;10.426;2022-10-14T15:34:37;3.58;;;2.90;;
74241;SDS011;62599;49.146;10.426;2022-10-14T15:37:10;4.97;;;2.80;;
74241;SDS011;62599;49.146;10.426;2022-10-14T15:39:40;3.33;;;2.70;;
74241;SDS011;62599;49.146;10.426;2022-10-14T15:42:11;3.72;;;2.90;;
74241;SDS011;62599;49.146;10.426;2022-10-14T15:44:36;4.93;;;3.03;;
74241;SDS011;62599;49.146;10.426;2022-10-14T15:47:01;5.43;;;3.07;;
74241;SDS011;62599;49.146;10.426;2022-10-14T15:49:44;4.53;;;3.05;;
74241;SDS011;62599;49.146;10.426;2022-10-14T15:52:12;7.37;;;2.90;;
74241;SDS011;62599;49.146;10.426;2022-10-14T15:54:37;6.97;;;3.97;;
74241;SDS011;62599;49.146;10.426;2022-10-14T15:57:03;7.10;;;3.33;;
74241;SDS011;62599;49.146;10.426;2022-10-14T15:59:29;3.78;;;2.83;;
74241;SDS011;62599;49.146;10.426;2022-10-14T16:01:54;5.17;;;3.57;;
74241;SDS011;62599;49.146;10.426;2022-10-14T16:04:21;3.63;;;3.10;;
74241;SDS011;62599;49.146;10.426;2022-10-14T16:06:48;5.50;;;3.58;;
74241;SDS011;62599;49.146;10.426;2022-10-14T16:09:14;4.78;;;3.03;;
74241;SDS011;62599;49.146;10.426;2022-10-14T16:11:39;4.78;;;3.28;;
74241;SDS011;62599;49.146;10.426;2022-10-14T16:14:05;6.13;;;2.93;;
74241;SDS011;62599;49.146;10.426;2022-10-14T16:16:34;4.72;;;3.42;;
74241;SDS011;62599;49.146;10.426;2022-10-14T16:19:00;6.93;;;3.35;;
74241;SDS011;62599;49.146;10.426;2022-10-14T16:21:26;10.48;;;3.17;;
74241;SDS011;62599;49.146;10.426;2022-10-14T16:23:53;5.28;;;3.88;;
74241;SDS011;62599;49.146;10.426;2022-10-14T16:26:18;11.77;;;4.03;;